Time;durP1;ratioP1;P1;durP2;ratioP2;P2;SDS_P1;SDS_P2;PMS_P1;PMS_P2;Temp;Humidity;BMP_temperature;BMP_pressure;BME280_temperature;BME280_humidity;BME280_pressure;Samples;Min_cycle;Max_cycle;Signal;HPM_P1;HPM_P2
2023/12/12 00:00:29;;;;;;;1.13;0.73;;;;;;;8.42;100.00;97448.66;3147658;23;20030;-93
2023/12/12 00:02:05;;;;;;;1.15;0.73;;;;;;;8.37;100.00;97440.13;3147036;23;20109;-93
2023/12/12 00:03:20;;;;;;;1.35;0.60;;;;;;;8.30;100.00;97445.59;3143788;23;20022;-93
2023/12/12 00:04:37;;;;;;;2.53;0.60;;;;;;;8.51;100.00;97445.75;3138252;23;20026;-94
2023/12/12 00:05:53;;;;;;;1.67;0.50;;;;;;;8.39;100.00;97435.75;3139377;23;20026;-92
2023/12/12 00:07:08;;;;;;;4.30;0.68;;;;;;;8.36;100.00;97444.50;3138810;23;20019;-93
2023/12/12 00:08:24;;;;;;;0.82;0.40;;;;;;;8.23;100.00;97432.81;3149805;23;20463;-93
2023/12/12 00:09:39;;;;;;;0.60;0.52;;;;;;;8.32;100.00;97437.72;3147402;23;20514;-93
2023/12/12 00:10:55;;;;;;;0.80;0.70;;;;;;;8.22;100.00;97442.38;3138648;23;20046;-93
2023/12/12 00:12:11;;;;;;;1.38;0.60;;;;;;;8.12;100.00;97444.44;3147900;23;20018;-93
2023/12/12 00:13:26;;;;;;;1.60;0.93;;;;;;;8.06;100.00;97457.72;3151019;23;20018;-93
2023/12/12 00:14:42;;;;;;;1.50;0.57;;;;;;;8.13;100.00;97445.31;3148878;23;20026;-94
2023/12/12 00:15:58;;;;;;;1.92;1.00;;;;;;;7.99;100.00;97448.38;3138887;23;20026;-94
2023/12/12 00:17:13;;;;;;;2.10;0.70;;;;;;;8.22;100.00;97447.59;3139092;23;20216;-94
2023/12/12 00:18:29;;;;;;;0.90;0.60;;;;;;;8.18;100.00;97465.13;3138623;23;20077;-95
2023/12/12 00:19:45;;;;;;;1.42;0.50;;;;;;;8.15;100.00;97457.38;3155333;23;20028;-93
2023/12/12 00:21:02;;;;;;;2.60;0.50;;;;;;;8.23;100.00;97451.06;3148853;23;20404;-94
2023/12/12 00:22:18;;;;;;;1.05;0.70;;;;;;;8.20;100.00;97465.91;3139567;23;20026;-93
2023/12/12 00:23:34;;;;;;;1.17;0.70;;;;;;;8.20;100.00;97459.84;3139303;23;20054;-93
2023/12/12 00:24:49;;;;;;;1.60;0.47;;;;;;;8.29;100.00;97464.75;3148304;23;20034;-93
2023/12/12 00:26:07;;;;;;;2.55;0.73;;;;;;;8.44;100.00;97463.34;3140147;23;20022;-93
2023/12/12 00:27:23;;;;;;;2.63;1.08;;;;;;;8.19;100.00;97471.16;3142033;23;20018;-93
2023/12/12 00:28:39;;;;;;;2.40;1.02;;;;;;;8.19;100.00;97468.56;3158935;23;20557;-93
2023/12/12 00:29:55;;;;;;;2.45;1.30;;;;;;;8.18;100.00;97464.25;3150752;23;20023;-93
2023/12/12 00:31:11;;;;;;;1.23;0.70;;;;;;;8.23;100.00;97477.13;3138701;23;20085;-93
2023/12/12 00:32:26;;;;;;;1.77;0.73;;;;;;;8.26;100.00;97475.28;3138269;23;20022;-94
2023/12/12 00:33:42;;;;;;;2.33;0.60;;;;;;;8.30;100.00;97471.66;3140712;23;20029;-93
2023/12/12 00:34:57;;;;;;;1.70;0.70;;;;;;;8.34;100.00;97481.06;3139675;23;20094;-93
2023/12/12 00:36:13;;;;;;;2.72;0.90;;;;;;;8.19;100.00;97479.84;3139736;23;20022;-93
2023/12/12 00:37:28;;;;;;;1.17;0.45;;;;;;;8.32;100.00;97488.09;3138557;23;20033;-93
2023/12/12 00:38:44;;;;;;;2.53;0.82;;;;;;;8.23;100.00;97487.56;3138885;23;20018;-93
2023/12/12 00:40:00;;;;;;;1.50;0.45;;;;;;;8.15;100.00;97496.50;3140904;23;20070;-93
2023/12/12 00:41:15;;;;;;;3.67;0.75;;;;;;;8.34;100.00;97499.31;3150481;23;20022;-93
2023/12/12 00:42:31;;;;;;;5.25;1.13;;;;;;;8.17;100.00;97499.06;3152242;23;20022;-93
2023/12/12 00:43:47;;;;;;;0.77;0.57;;;;;;;8.28;100.00;97504.75;3140129;23;20028;-93
2023/12/12 00:45:02;;;;;;;1.77;0.80;;;;;;;8.27;100.00;97508.28;3147672;23;20033;-92
2023/12/12 00:46:18;;;;;;;1.65;0.70;;;;;;;8.25;100.00;97517.06;3149552;23;20025;-91
2023/12/12 00:47:34;;;;;;;1.05;0.82;;;;;;;8.23;100.00;97508.44;3149139;23;20026;-91
2023/12/12 00:48:49;;;;;;;2.70;1.17;;;;;;;8.16;100.00;97511.22;3147743;23;20076;-91
2023/12/12 00:50:05;;;;;;;2.67;0.82;;;;;;;8.25;100.00;97504.00;3148075;23;20026;-91
2023/12/12 00:51:21;;;;;;;2.58;1.00;;;;;;;8.39;100.00;97511.38;3148985;23;20050;-92
2023/12/12 00:52:37;;;;;;;1.67;0.57;;;;;;;8.22;100.00;97506.72;3138671;23;20479;-94
2023/12/12 00:53:52;;;;;;;5.07;0.90;;;;;;;8.25;100.00;97509.22;3148071;23;20026;-91
2023/12/12 00:55:08;;;;;;;2.78;0.57;;;;;;;8.16;100.00;97513.84;3147678;23;20133;-95
2023/12/12 00:56:24;;;;;;;1.60;0.70;;;;;;;8.31;100.00;97515.09;3148950;23;20026;-93
2023/12/12 00:57:39;;;;;;;2.70;0.93;;;;;;;8.30;100.00;97515.13;3147281;23;20029;-93
2023/12/12 00:58:55;;;;;;;5.25;1.10;;;;;;;8.50;100.00;97519.69;3138194;23;20034;-92
2023/12/12 01:00:11;;;;;;;2.67;0.80;;;;;;;8.47;100.00;97517.16;3139580;23;20018;-93
2023/12/12 01:01:27;;;;;;;5.60;1.15;;;;;;;8.29;100.00;97524.72;3137625;23;20029;-94
2023/12/12 01:02:43;;;;;;;5.28;1.13;;;;;;;8.35;100.00;97526.28;3138352;23;20478;-94
2023/12/12 01:03:58;;;;;;;4.95;1.00;;;;;;;8.60;100.00;97536.75;3139082;23;20072;-92
2023/12/12 01:05:14;;;;;;;5.75;0.98;;;;;;;8.57;100.00;97530.78;3138670;23;20026;-93
2023/12/12 01:06:30;;;;;;;4.47;1.10;;;;;;;8.47;100.00;97530.22;3140405;23;20034;-91
2023/12/12 01:07:45;;;;;;;2.35;0.70;;;;;;;8.34;100.00;97532.41;3139709;23;20023;-92
2023/12/12 01:09:01;;;;;;;3.95;1.15;;;;;;;8.23;100.00;97532.72;3138897;23;20379;-92
2023/12/12 01:10:17;;;;;;;1.73;0.80;;;;;;;8.31;100.00;97541.16;3138299;23;20149;-92
2023/12/12 01:11:32;;;;;;;3.08;0.88;;;;;;;8.14;100.00;97539.09;3140023;23;20061;-91
2023/12/12 01:12:48;;;;;;;2.05;0.68;;;;;;;8.17;100.00;97538.16;3139495;23;20026;-92
2023/12/12 01:14:04;;;;;;;3.47;0.75;;;;;;;7.99;100.00;97535.25;3147060;23;20586;-92
2023/12/12 01:15:19;;;;;;;1.40;0.65;;;;;;;8.11;100.00;97541.81;3147720;23;20022;-92
2023/12/12 01:16:34;;;;;;;3.90;1.02;;;;;;;8.26;100.00;97537.00;3146468;23;20031;-92
2023/12/12 01:17:50;;;;;;;0.88;0.60;;;;;;;8.01;100.00;97538.66;3139566;23;20033;-92
2023/12/12 01:19:06;;;;;;;5.05;1.10;;;;;;;8.00;100.00;97533.50;3147048;23;20022;-92
2023/12/12 01:20:21;;;;;;;1.25;0.88;;;;;;;7.78;100.00;97537.63;3147577;23;20022;-92
2023/12/12 01:21:37;;;;;;;3.33;0.80;;;;;;;7.72;100.00;97537.84;3138290;23;20018;-91
2023/12/12 01:22:52;;;;;;;2.30;0.60;;;;;;;7.88;100.00;97547.78;3139939;23;20058;-91
2023/12/12 01:24:08;;;;;;;1.90;0.70;;;;;;;7.72;100.00;97534.38;3153724;23;20025;-93
2023/12/12 01:25:23;;;;;;;3.50;1.10;;;;;;;7.77;100.00;97525.50;3146827;23;20620;-92
2023/12/12 01:26:39;;;;;;;1.17;0.88;;;;;;;7.87;100.00;97527.84;3138205;23;20517;-92
2023/12/12 01:27:55;;;;;;;3.53;0.70;;;;;;;7.67;100.00;97524.09;3138634;23;20356;-91
2023/12/12 01:29:11;;;;;;;1.83;0.70;;;;;;;7.70;100.00;97528.34;3139376;23;20018;-91
2023/12/12 01:30:27;;;;;;;1.70;0.88;;;;;;;7.78;100.00;97536.78;3139307;23;20491;-93
2023/12/12 01:31:43;;;;;;;2.53;0.90;;;;;;;7.83;100.00;97534.88;3138497;23;20022;-92
2023/12/12 01:32:58;;;;;;;4.03;1.48;;;;;;;7.97;100.00;97534.47;3137787;23;20408;-92
2023/12/12 01:34:14;;;;;;;2.20;1.17;;;;;;;8.01;100.00;97533.47;3147482;23;20085;-92
2023/12/12 01:35:30;;;;;;;3.30;1.15;;;;;;;8.14;100.00;97533.06;3147018;23;20527;-92
2023/12/12 01:36:45;;;;;;;3.90;0.95;;;;;;;8.11;100.00;97546.19;3138253;23;20478;-92
2023/12/12 01:38:01;;;;;;;4.78;1.33;;;;;;;8.12;100.00;97548.75;3137970;23;20360;-92
2023/12/12 01:39:17;;;;;;;6.93;1.27;;;;;;;8.03;100.00;97549.88;3139976;23;20502;-92
2023/12/12 01:40:32;;;;;;;2.33;0.95;;;;;;;8.13;100.00;97541.78;3138524;23;20491;-93
2023/12/12 01:41:49;;;;;;;2.50;1.10;;;;;;;8.16;100.00;97547.72;3138160;23;20026;-93
2023/12/12 01:43:05;;;;;;;3.95;1.42;;;;;;;8.20;100.00;97551.97;3140521;23;20026;-93
2023/12/12 01:44:21;;;;;;;5.00;1.17;;;;;;;8.28;100.00;97546.50;3138363;23;20023;-92
2023/12/12 01:45:37;;;;;;;3.15;1.20;;;;;;;7.94;100.00;97547.56;3148081;23;20029;-93
2023/12/12 01:46:53;;;;;;;5.50;1.40;;;;;;;8.18;100.00;97545.94;3147302;23;20029;-92
2023/12/12 01:48:08;;;;;;;3.60;1.30;;;;;;;8.20;100.00;97553.69;3139416;23;20018;-92
2023/12/12 01:49:24;;;;;;;4.22;1.00;;;;;;;7.89;100.00;97547.75;3138929;23;20022;-92
2023/12/12 01:50:40;;;;;;;6.07;1.63;;;;;;;8.06;100.00;97556.78;3155297;23;20663;-93
2023/12/12 01:51:56;;;;;;;3.15;1.20;;;;;;;8.04;100.00;97553.38;3148667;23;20034;-92
2023/12/12 01:53:13;;;;;;;4.90;1.30;;;;;;;8.15;100.00;97550.41;3139419;23;20078;-92
2023/12/12 01:54:30;;;;;;;4.50;1.35;;;;;;;8.23;100.00;97555.38;3141019;23;20046;-93
2023/12/12 01:55:48;;;;;;;4.25;1.30;;;;;;;8.18;100.00;97558.13;3140345;23;20164;-92
2023/12/12 01:57:04;;;;;;;3.95;0.98;;;;;;;8.25;100.00;97559.63;3139217;23;20082;-92
2023/12/12 01:58:20;;;;;;;4.78;1.25;;;;;;;8.43;100.00;97563.38;3138838;23;20081;-92
2023/12/12 01:59:37;;;;;;;3.63;1.20;;;;;;;8.29;100.00;97555.16;3139208;23;20029;-93
2023/12/12 02:00:54;;;;;;;2.95;0.90;;;;;;;8.30;100.00;97556.84;3139439;23;20034;-92
2023/12/12 02:02:10;;;;;;;5.68;1.40;;;;;;;8.30;100.00;97568.16;3148632;23;20026;-93
2023/12/12 02:03:27;;;;;;;4.03;1.40;;;;;;;8.31;100.00;97563.78;3150120;23;20026;-93
2023/12/12 02:04:45;;;;;;;3.05;1.13;;;;;;;8.18;100.00;97563.34;3124338;23;20058;-92
2023/12/12 02:06:01;;;;;;;3.05;1.27;;;;;;;8.32;100.00;97565.50;3131852;23;20015;-93
2023/12/12 02:07:18;;;;;;;3.20;1.20;;;;;;;8.05;100.00;97561.13;3138326;23;20101;-92
2023/12/12 02:08:33;;;;;;;2.65;1.00;;;;;;;8.15;100.00;97560.84;3139769;23;20027;-93
2023/12/12 02:09:52;;;;;;;2.78;1.30;;;;;;;8.02;100.00;97558.63;3139034;23;20025;-93
2023/12/12 02:11:07;;;;;;;5.95;1.92;;;;;;;7.83;100.00;97563.56;3148260;23;20022;-92
2023/12/12 02:12:24;;;;;;;3.15;1.23;;;;;;;7.73;100.00;97560.38;3139285;23;20041;-93
2023/12/12 02:13:40;;;;;;;3.50;1.20;;;;;;;7.73;100.00;97560.38;3148623;23;20525;-93
2023/12/12 02:14:55;;;;;;;2.67;1.05;;;;;;;7.93;100.00;97560.66;3147749;23;20138;-93
2023/12/12 02:16:15;;;;;;;4.18;1.20;;;;;;;7.94;100.00;97558.00;3148618;23;20019;-92
2023/12/12 02:17:30;;;;;;;4.15;1.00;;;;;;;7.91;100.00;97561.56;3147641;23;20022;-93
2023/12/12 02:18:45;;;;;;;4.03;1.27;;;;;;;7.83;100.00;97555.72;3147136;23;20355;-92
2023/12/12 02:20:01;;;;;;;5.55;1.33;;;;;;;7.90;100.00;97551.19;3149641;23;20123;-92
2023/12/12 02:21:20;;;;;;;5.35;1.20;;;;;;;7.81;100.00;97551.47;3147539;23;20029;-92
2023/12/12 02:22:35;;;;;;;2.92;0.82;;;;;;;7.68;100.00;97546.63;3148276;23;20025;-93
2023/12/12 02:23:51;;;;;;;2.75;1.00;;;;;;;7.73;100.00;97538.69;3148878;23;20029;-92
2023/12/12 02:25:07;;;;;;;2.67;1.08;;;;;;;7.79;100.00;97548.94;3148592;23;20070;-92
2023/12/12 02:26:23;;;;;;;2.55;1.00;;;;;;;7.63;100.00;97543.31;3149231;23;20018;-91
2023/12/12 02:27:39;;;;;;;0.68;0.60;;;;;;;7.79;100.00;97551.53;3139583;23;20026;-92
2023/12/12 02:28:55;;;;;;;3.80;1.00;;;;;;;7.84;100.00;97551.38;3141219;23;20053;-92
2023/12/12 02:30:11;;;;;;;3.00;0.60;;;;;;;7.70;100.00;97555.28;3154347;23;20097;-91
2023/12/12 02:31:27;;;;;;;1.73;1.00;;;;;;;7.89;100.00;97562.50;3156498;23;20421;-95
2023/12/12 02:32:43;;;;;;;2.08;1.13;;;;;;;8.10;100.00;97554.91;3144658;23;20026;-92
2023/12/12 02:33:58;;;;;;;4.75;0.95;;;;;;;8.18;100.00;97553.78;3138882;23;20025;-93
2023/12/12 02:35:14;;;;;;;2.60;0.80;;;;;;;7.90;100.00;97561.59;3139233;23;20597;-92
2023/12/12 02:36:30;;;;;;;3.53;0.88;;;;;;;8.13;100.00;97554.81;3140146;23;20026;-92
2023/12/12 02:37:45;;;;;;;2.72;0.95;;;;;;;8.09;100.00;97555.78;3138985;23;20367;-92
2023/12/12 02:39:02;;;;;;;5.70;1.70;;;;;;;8.03;100.00;97556.84;3124333;23;20069;-93
2023/12/12 02:40:17;;;;;;;4.28;1.20;;;;;;;8.05;100.00;97560.28;3131773;23;20087;-92
2023/12/12 02:41:33;;;;;;;2.08;0.95;;;;;;;8.14;100.00;97559.13;3140063;23;20026;-92
2023/12/12 02:42:51;;;;;;;2.60;0.95;;;;;;;8.00;100.00;97555.22;3124115;23;20260;-92
2023/12/12 02:44:06;;;;;;;4.00;1.35;;;;;;;8.20;100.00;97551.09;3146197;23;20042;-91
2023/12/12 02:45:22;;;;;;;6.93;1.35;;;;;;;7.90;100.00;97553.78;3148258;23;20026;-92
2023/12/12 02:46:39;;;;;;;5.55;1.20;;;;;;;7.89;100.00;97555.56;3139319;23;20473;-92
2023/12/12 02:47:55;;;;;;;3.50;1.13;;;;;;;8.09;100.00;97555.78;3139156;23;20022;-92
2023/12/12 02:49:10;;;;;;;1.90;1.15;;;;;;;7.98;100.00;97557.03;3150173;23;20022;-93
2023/12/12 02:50:26;;;;;;;3.03;1.20;;;;;;;8.01;100.00;97562.13;3149184;23;20026;-92
2023/12/12 02:51:41;;;;;;;2.97;1.10;;;;;;;8.00;100.00;97560.44;3148471;23;20022;-92
2023/12/12 02:52:57;;;;;;;4.30;1.10;;;;;;;8.05;100.00;97561.13;3147553;23;20033;-92
2023/12/12 02:54:13;;;;;;;4.97;1.42;;;;;;;8.02;100.00;97561.22;3148239;23;20037;-92
2023/12/12 02:55:28;;;;;;;6.88;1.88;;;;;;;8.04;100.00;97566.41;3149215;23;20082;-92
2023/12/12 02:56:44;;;;;;;4.70;1.08;;;;;;;8.03;100.00;97572.47;3139618;23;20026;-92
2023/12/12 02:58:00;;;;;;;3.70;1.10;;;;;;;7.94;100.00;97576.25;3138959;23;20451;-92
2023/12/12 02:59:15;;;;;;;1.98;1.00;;;;;;;7.92;100.00;97570.22;3138877;23;20402;-93
2023/12/12 03:00:31;;;;;;;3.83;1.20;;;;;;;7.95;100.00;97572.72;3140790;23;20463;-92
2023/12/12 03:01:48;;;;;;;4.78;1.30;;;;;;;8.03;100.00;97569.88;3139374;23;20090;-92
2023/12/12 03:03:03;;;;;;;4.15;1.10;;;;;;;8.01;100.00;97574.28;3148313;23;20057;-92
2023/12/12 03:04:19;;;;;;;5.20;1.35;;;;;;;8.03;100.00;97572.47;3149021;23;20474;-93
2023/12/12 03:05:35;;;;;;;2.80;1.05;;;;;;;7.98;100.00;97575.25;3147894;23;20030;-92
2023/12/12 03:06:50;;;;;;;6.05;1.30;;;;;;;7.99;100.00;97582.19;3139133;23;20074;-92
2023/12/12 03:08:06;;;;;;;4.07;1.20;;;;;;;8.03;100.00;97575.97;3147353;23;20027;-92
2023/12/12 03:09:22;;;;;;;4.07;1.30;;;;;;;8.10;100.00;97576.63;3139467;23;20554;-92
2023/12/12 03:10:37;;;;;;;5.88;1.13;;;;;;;7.97;100.00;97583.13;3139108;23;20026;-92
2023/12/12 03:11:55;;;;;;;4.55;0.93;;;;;;;8.01;100.00;97580.38;3140028;23;20059;-92
2023/12/12 03:13:11;;;;;;;3.05;0.77;;;;;;;7.76;100.00;97578.53;3140108;23;20018;-92
2023/12/12 03:14:30;;;;;;;5.07;1.00;;;;;;;7.74;100.00;97576.84;3139717;23;20026;-93
2023/12/12 03:15:46;;;;;;;3.53;1.13;;;;;;;7.74;100.00;97580.31;3141594;23;20467;-92
2023/12/12 03:17:02;;;;;;;4.90;1.10;;;;;;;7.80;100.00;97579.28;3139595;23;20026;-92
2023/12/12 03:18:17;;;;;;;5.20;1.20;;;;;;;7.87;100.00;97577.34;3139228;23;20056;-93
2023/12/12 03:19:33;;;;;;;3.33;0.95;;;;;;;7.88;100.00;97587.72;3154210;23;20022;-93
2023/12/12 03:20:48;;;;;;;3.03;1.25;;;;;;;7.94;100.00;97586.66;3148280;23;20042;-92
2023/12/12 03:22:04;;;;;;;4.47;1.20;;;;;;;7.84;100.00;97583.50;3140169;23;20025;-93
2023/12/12 03:23:19;;;;;;;1.55;0.75;;;;;;;7.83;100.00;97587.00;3139224;23;20050;-92
2023/12/12 03:24:35;;;;;;;5.70;1.00;;;;;;;7.93;100.00;97582.34;3148551;23;20026;-92
2023/12/12 03:25:51;;;;;;;6.53;1.48;;;;;;;8.13;100.00;97591.31;3153540;23;20022;-92
2023/12/12 03:27:08;;;;;;;4.50;0.95;;;;;;;8.09;100.00;97582.75;3147475;23;20038;-93
2023/12/12 03:28:24;;;;;;;3.75;1.33;;;;;;;7.97;100.00;97578.78;3139625;23;20026;-93
2023/12/12 03:29:40;;;;;;;3.22;0.95;;;;;;;7.76;100.00;97580.28;3124534;23;20019;-92
2023/12/12 03:30:55;;;;;;;5.90;1.20;;;;;;;7.73;100.00;97572.53;3140847;23;20026;-92
2023/12/12 03:32:11;;;;;;;1.08;0.98;;;;;;;7.44;100.00;97579.47;3147962;23;20849;-92
2023/12/12 03:33:27;;;;;;;6.05;1.27;;;;;;;7.59;100.00;97579.03;3155154;23;20131;-93
2023/12/12 03:34:42;;;;;;;2.30;1.05;;;;;;;7.70;100.00;97576.13;3148486;23;20081;-93
2023/12/12 03:35:58;;;;;;;4.03;1.05;;;;;;;7.71;100.00;97576.97;3139724;23;20108;-93
2023/12/12 03:37:16;;;;;;;4.63;1.95;;;;;;;7.68;100.00;97577.88;3148556;23;20019;-93
2023/12/12 03:38:31;;;;;;;4.20;1.08;;;;;;;7.55;100.00;97580.03;3139729;23;20022;-93
2023/12/12 03:39:47;;;;;;;2.92;1.00;;;;;;;7.58;100.00;97579.09;3139393;23;20029;-93
2023/12/12 03:41:03;;;;;;;3.65;1.15;;;;;;;7.51;100.00;97580.16;3141510;23;20026;-92
2023/12/12 03:42:18;;;;;;;4.88;1.00;;;;;;;7.67;100.00;97575.34;3140622;23;20029;-92
2023/12/12 03:43:34;;;;;;;2.60;0.80;;;;;;;7.51;100.00;97580.16;3139311;23;20761;-93
2023/12/12 03:44:50;;;;;;;3.55;1.02;;;;;;;7.68;100.00;97577.06;3154106;23;20022;-92
2023/12/12 03:46:05;;;;;;;3.72;1.20;;;;;;;7.84;100.00;97575.69;3163023;23;20017;-92
2023/12/12 03:47:21;;;;;;;4.20;1.10;;;;;;;7.99;100.00;97576.97;3149469;23;20018;-92
2023/12/12 03:48:37;;;;;;;7.25;1.05;;;;;;;7.65;100.00;97577.16;3138983;23;20517;-92
2023/12/12 03:49:52;;;;;;;4.63;1.10;;;;;;;7.58;100.00;97579.94;3148090;23;20022;-92
2023/12/12 03:51:09;;;;;;;3.53;1.30;;;;;;;7.84;100.00;97577.44;3139207;23;20026;-92
2023/12/12 03:52:25;;;;;;;4.53;1.05;;;;;;;7.96;100.00;97581.41;3139398;23;20073;-92
2023/12/12 03:53:41;;;;;;;7.10;1.58;;;;;;;7.77;100.00;97584.59;3155595;23;20238;-92
2023/12/12 03:54:56;;;;;;;5.10;1.40;;;;;;;7.83;100.00;97579.19;3148710;23;20026;-91
2023/12/12 03:56:12;;;;;;;4.80;1.35;;;;;;;7.91;100.00;97578.94;3154534;23;20018;-93
2023/12/12 03:57:27;;;;;;;3.58;1.40;;;;;;;8.21;100.00;97581.47;3165990;23;20018;-92
2023/12/12 03:58:47;;;;;;;5.10;1.15;;;;;;;8.05;100.00;97581.97;3149356;23;20029;-92
2023/12/12 04:00:06;;;;;;;6.20;1.23;;;;;;;8.01;100.00;97582.97;3140241;23;20102;-92
2023/12/12 04:01:22;;;;;;;4.00;1.48;;;;;;;7.95;100.00;97574.50;3140253;23;20082;-92
2023/12/12 04:02:38;;;;;;;4.68;1.35;;;;;;;8.08;100.00;97580.16;3154216;23;20081;-92
2023/12/12 04:03:55;;;;;;;5.28;1.23;;;;;;;7.96;100.00;97576.22;3148738;23;20030;-92
2023/12/12 04:05:10;;;;;;;3.83;1.20;;;;;;;7.99;100.00;97586.53;3139924;23;20439;-92
2023/12/12 04:06:26;;;;;;;4.70;1.20;;;;;;;8.08;100.00;97581.03;3142377;23;20033;-92
2023/12/12 04:07:42;;;;;;;8.52;1.40;;;;;;;7.74;100.00;97577.72;3138821;23;20030;-93
2023/12/12 04:08:57;;;;;;;4.18;1.70;;;;;;;7.78;100.00;97579.31;3139569;23;20026;-92
2023/12/12 04:10:13;;;;;;;3.05;1.60;;;;;;;8.04;100.00;97582.03;3138164;23;20077;-92
2023/12/12 04:11:28;;;;;;;4.00;1.35;;;;;;;8.08;100.00;97581.03;3138644;23;20082;-92
2023/12/12 04:12:44;;;;;;;9.80;1.65;;;;;;;8.06;100.00;97583.69;3148981;23;20018;-92
2023/12/12 04:14:00;;;;;;;6.35;1.27;;;;;;;8.09;100.00;97582.75;3139823;23;20018;-92
2023/12/12 04:15:15;;;;;;;5.53;1.40;;;;;;;7.94;100.00;97580.63;3138763;23;20026;-93
2023/12/12 04:16:31;;;;;;;3.20;1.40;;;;;;;7.87;100.00;97577.34;3138801;23;20484;-92
2023/12/12 04:17:47;;;;;;;4.50;1.20;;;;;;;7.87;100.00;97579.97;3138706;23;20026;-92
2023/12/12 04:19:02;;;;;;;5.43;1.77;;;;;;;7.73;100.00;97576.03;3140131;23;20317;-92
2023/12/12 04:20:18;;;;;;;4.90;1.20;;;;;;;7.78;100.00;97588.91;3139712;23;20064;-92
2023/12/12 04:21:34;;;;;;;5.72;1.40;;;;;;;7.86;100.00;97588.69;3140840;23;20138;-92
2023/12/12 04:22:49;;;;;;;3.92;1.45;;;;;;;7.91;100.00;97586.78;3149996;23;20022;-92
2023/12/12 04:24:05;;;;;;;4.13;1.63;;;;;;;7.83;100.00;97589.63;3146158;23;20026;-93
2023/12/12 04:25:21;;;;;;;6.63;1.27;;;;;;;7.84;100.00;97590.47;3139913;23;20073;-92
2023/12/12 04:26:36;;;;;;;5.25;1.52;;;;;;;7.73;100.00;97586.44;3139054;23;20034;-93
2023/12/12 04:27:52;;;;;;;6.70;1.70;;;;;;;7.84;100.00;97590.47;3155756;23;20025;-92
2023/12/12 04:29:08;;;;;;;4.75;1.25;;;;;;;7.70;100.00;97591.75;3149067;23;20068;-92
2023/12/12 04:30:23;;;;;;;4.32;1.27;;;;;;;7.78;100.00;97594.13;3139543;23;20022;-92
2023/12/12 04:31:39;;;;;;;5.20;1.40;;;;;;;7.72;100.00;97586.47;3139223;23;20513;-93
2023/12/12 04:32:55;;;;;;;6.97;1.75;;;;;;;7.55;100.00;97597.41;3139062;23;20026;-92
2023/12/12 04:34:11;;;;;;;5.07;1.50;;;;;;;7.42;100.00;97589.09;3140294;23;20019;-92
2023/12/12 04:35:26;;;;;;;5.55;1.45;;;;;;;7.59;100.00;97594.66;3139629;23;20022;-92
2023/12/12 04:36:42;;;;;;;5.75;1.60;;;;;;;7.60;100.00;97592.91;3139043;23;20028;-92
2023/12/12 04:37:58;;;;;;;2.97;1.30;;;;;;;7.59;100.00;97596.44;3153884;23;20101;-93
2023/12/12 04:39:16;;;;;;;8.77;2.08;;;;;;;7.62;100.00;97594.59;3147198;23;20037;-92
2023/12/12 04:40:31;;;;;;;5.90;1.52;;;;;;;7.59;100.00;97599.88;3140015;23;20053;-92
2023/12/12 04:41:47;;;;;;;6.13;1.30;;;;;;;7.54;100.00;97599.16;3148839;23;20022;-93
2023/12/12 04:43:02;;;;;;;4.30;1.38;;;;;;;7.51;100.00;97595.78;3147649;23;20031;-93
2023/12/12 04:44:18;;;;;;;9.77;1.92;;;;;;;7.35;100.00;97598.84;3139138;23;20023;-93
2023/12/12 04:45:34;;;;;;;3.50;1.20;;;;;;;7.06;100.00;97603.09;3148498;23;20030;-94
2023/12/12 04:46:50;;;;;;;3.75;1.40;;;;;;;7.14;100.00;97603.75;3149238;23;20022;-92
2023/12/12 04:48:06;;;;;;;3.40;1.10;;;;;;;7.23;100.00;97600.03;3148840;23;20025;-91
2023/12/12 04:49:21;;;;;;;3.17;1.10;;;;;;;7.21;100.00;97594.88;3147311;23;20451;-92
2023/12/12 04:50:37;;;;;;;5.63;1.48;;;;;;;7.30;100.00;97608.53;3139980;23;20486;-92
2023/12/12 04:51:52;;;;;;;5.20;1.20;;;;;;;7.28;100.00;97611.16;3138812;23;20022;-92
2023/12/12 04:53:08;;;;;;;5.43;1.45;;;;;;;7.11;100.00;97608.19;3149424;23;20541;-91
2023/12/12 04:54:23;;;;;;;4.22;1.35;;;;;;;7.18;100.00;97615.78;3152831;23;20039;-92
2023/12/12 04:55:39;;;;;;;3.20;1.17;;;;;;;7.18;100.00;97605.38;3151608;23;20037;-92
2023/12/12 04:56:55;;;;;;;3.67;1.48;;;;;;;7.09;100.00;97616.03;3156551;23;20026;-93
2023/12/12 04:58:10;;;;;;;5.18;1.20;;;;;;;7.27;100.00;97613.84;3150227;23;20050;-91
2023/12/12 04:59:26;;;;;;;5.18;1.27;;;;;;;7.36;100.00;97621.38;3140320;23;20023;-91
2023/12/12 05:00:42;;;;;;;4.63;1.33;;;;;;;7.38;100.00;97613.53;3142142;23;20026;-91
2023/12/12 05:01:57;;;;;;;6.95;1.55;;;;;;;7.49;100.00;97619.28;3141482;23;20026;-92
2023/12/12 05:03:13;;;;;;;4.55;1.17;;;;;;;7.29;100.00;97620.69;3141846;23;20029;-93
2023/12/12 05:04:29;;;;;;;4.88;1.52;;;;;;;7.32;100.00;97612.78;3143420;23;20475;-91
2023/12/12 05:05:45;;;;;;;6.57;1.42;;;;;;;7.16;100.00;97621.94;3158188;23;20137;-92
2023/12/12 05:07:00;;;;;;;6.68;1.30;;;;;;;7.21;100.00;97620.91;3149251;23;20018;-91
2023/12/12 05:08:16;;;;;;;5.25;1.27;;;;;;;7.39;100.00;97621.28;3141055;23;20026;-92
2023/12/12 05:09:31;;;;;;;6.88;1.58;;;;;;;7.41;100.00;97623.84;3141210;23;20023;-92
2023/12/12 05:10:47;;;;;;;6.80;1.40;;;;;;;7.39;100.00;97623.88;3141649;23;20509;-92
2023/12/12 05:12:03;;;;;;;4.43;0.98;;;;;;;7.36;100.00;97623.97;3142928;23;20027;-93
2023/12/12 05:13:18;;;;;;;6.22;1.48;;;;;;;7.52;100.00;97620.94;3139977;23;20030;-92
2023/12/12 05:14:34;;;;;;;6.07;1.55;;;;;;;7.31;100.00;97621.50;3138734;23;20084;-92
2023/12/12 05:15:50;;;;;;;2.65;1.17;;;;;;;7.09;100.00;97620.41;3141321;23;20058;-92
2023/12/12 05:17:05;;;;;;;6.03;1.40;;;;;;;7.51;100.00;97619.22;3140646;23;20022;-92
2023/12/12 05:18:21;;;;;;;5.78;1.20;;;;;;;7.35;100.00;97617.06;3147902;23;20037;-92
2023/12/12 05:19:37;;;;;;;4.43;1.25;;;;;;;7.20;100.00;97623.56;3154844;23;20022;-92
2023/12/12 05:20:52;;;;;;;8.18;1.60;;;;;;;7.07;100.00;97620.44;3156902;23;20018;-92
2023/12/12 05:22:08;;;;;;;5.10;1.30;;;;;;;7.05;100.00;97619.63;3150497;23;20070;-92
2023/12/12 05:23:24;;;;;;;3.67;1.20;;;;;;;6.95;100.00;97619.03;3149756;23;20073;-92
2023/12/12 05:24:39;;;;;;;6.35;1.13;;;;;;;7.04;100.00;97613.53;3148888;23;20026;-92
2023/12/12 05:25:55;;;;;;;3.08;1.10;;;;;;;6.77;100.00;97618.63;3139530;23;20033;-92
2023/12/12 05:27:11;;;;;;;6.20;1.15;;;;;;;6.89;100.00;97621.78;3139104;23;20029;-93
2023/12/12 05:28:26;;;;;;;4.95;1.33;;;;;;;6.90;100.00;97626.06;3149172;23;20054;-92
2023/12/12 05:29:42;;;;;;;4.07;1.15;;;;;;;6.72;100.00;97615.25;3139695;23;20054;-91
2023/12/12 05:30:58;;;;;;;5.30;1.33;;;;;;;6.88;100.00;97615.72;3138809;23;20030;-92
2023/12/12 05:32:13;;;;;;;3.72;1.10;;;;;;;6.54;100.00;97620.94;3139953;23;20085;-92
2023/12/12 05:33:29;;;;;;;5.53;1.52;;;;;;;6.44;100.00;97618.56;3140797;23;20029;-93
2023/12/12 05:34:45;;;;;;;3.80;1.58;;;;;;;6.58;100.00;97618.22;3139696;23;20030;-93
2023/12/12 05:36:00;;;;;;;5.05;1.23;;;;;;;6.61;100.00;97610.34;3139432;23;20483;-93
2023/12/12 05:37:16;;;;;;;5.03;1.55;;;;;;;6.71;100.00;97620.53;3124100;23;20022;-92
2023/12/12 05:38:31;;;;;;;2.53;1.02;;;;;;;6.62;100.00;97622.44;3138760;23;20030;-92
2023/12/12 05:39:47;;;;;;;4.03;1.50;;;;;;;6.52;100.00;97620.13;3155168;23;20029;-93
2023/12/12 05:41:03;;;;;;;3.78;1.27;;;;;;;6.43;100.00;97619.44;3147658;23;20030;-93
2023/12/12 05:42:18;;;;;;;2.45;1.10;;;;;;;6.68;100.00;97623.19;3150622;23;20027;-92
2023/12/12 05:43:34;;;;;;;4.80;1.20;;;;;;;6.71;100.00;97628.31;3148182;23;20041;-92
2023/12/12 05:44:50;;;;;;;2.25;1.10;;;;;;;6.69;100.00;97622.28;3124347;23;20383;-92
2023/12/12 05:46:06;;;;;;;4.10;1.20;;;;;;;6.91;100.00;97638.19;3146054;23;20331;-93
2023/12/12 05:47:21;;;;;;;1.80;1.10;;;;;;;6.90;100.00;97629.56;3148283;23;20584;-92
2023/12/12 05:48:37;;;;;;;4.57;0.90;;;;;;;6.65;100.00;97626.72;3124568;23;20027;-92
2023/12/12 05:49:53;;;;;;;3.03;1.23;;;;;;;6.75;100.00;97632.56;3129989;23;20026;-92
2023/12/12 05:51:08;;;;;;;2.78;1.13;;;;;;;6.88;100.00;97635.69;3138808;23;20490;-93
2023/12/12 05:52:25;;;;;;;5.50;1.17;;;;;;;6.72;100.00;97636.06;3153769;23;20505;-92
2023/12/12 05:53:41;;;;;;;5.38;1.35;;;;;;;6.96;100.00;97633.75;3148172;23;20026;-92
2023/12/12 05:54:57;;;;;;;2.67;1.58;;;;;;;6.71;100.00;97633.53;3140408;23;20037;-92
2023/12/12 05:56:13;;;;;;;3.95;1.15;;;;;;;6.89;100.00;97632.19;3148864;23;20031;-92
2023/12/12 05:57:29;;;;;;;2.70;1.00;;;;;;;6.79;100.00;97636.78;3148310;23;20073;-92